createdAt,value
2023-02-01T00:01:47.046Z,2.83
2023-02-01T00:04:15.314Z,2.93
2023-02-01T00:06:43.632Z,3.00
2023-02-01T00:09:14.531Z,3.30
2023-02-01T00:11:43.042Z,3.50
2023-02-01T00:14:11.674Z,3.10
2023-02-01T00:16:40.238Z,3.40
2023-02-01T00:19:12.679Z,3.47
2023-02-01T00:21:41.056Z,3.27
2023-02-01T00:24:11.005Z,3.03
2023-02-01T00:26:43.852Z,2.73
2023-02-01T00:29:15.041Z,2.97
2023-02-01T00:31:44.387Z,2.67
2023-02-01T00:34:14.764Z,3.00
2023-02-01T00:36:43.346Z,3.23
2023-02-01T00:39:12.599Z,2.97
2023-02-01T00:41:42.640Z,3.17
2023-02-01T00:44:10.945Z,3.10
2023-02-01T00:46:39.659Z,3.00
2023-02-01T00:49:10.180Z,2.67
2023-02-01T00:51:38.542Z,2.70
2023-02-01T00:54:06.939Z,2.13
2023-02-01T00:56:35.269Z,2.07
2023-02-01T00:59:04.912Z,2.10
2023-02-01T01:01:34.111Z,1.90
2023-02-01T01:04:02.657Z,2.10
2023-02-01T01:06:34.978Z,2.17
2023-02-01T01:09:05.997Z,2.33
2023-02-01T01:11:48.852Z,1.70
2023-02-01T01:14:18.540Z,1.70
2023-02-01T01:16:46.834Z,1.70
2023-02-01T01:19:16.022Z,2.00
2023-02-01T01:21:44.213Z,1.93
2023-02-01T01:24:12.489Z,1.60
2023-02-01T01:26:40.964Z,2.13
2023-02-01T01:29:11.508Z,1.63
2023-02-01T01:31:42.709Z,1.47
2023-02-01T01:34:11.174Z,1.73
2023-02-01T01:36:39.373Z,1.50
2023-02-01T01:39:08.769Z,1.63
2023-02-01T01:41:37.163Z,1.60
2023-02-01T01:44:07.531Z,1.57
2023-02-01T01:46:39.008Z,1.23
2023-02-01T01:49:14.006Z,1.40
2023-02-01T01:51:46.890Z,1.37
2023-02-01T01:54:19.664Z,1.63
2023-02-01T01:56:53.682Z,1.67
2023-02-01T01:59:23.452Z,1.63
2023-02-01T02:01:51.978Z,1.40
2023-02-01T02:04:22.224Z,1.20
2023-02-01T02:06:57.545Z,1.50
2023-02-01T02:09:25.997Z,1.60
2023-02-01T02:11:54.586Z,1.40
2023-02-01T02:14:25.240Z,1.73
2023-02-01T02:17:09.791Z,1.30
2023-02-01T02:20:10.735Z,1.70
2023-02-01T02:23:27.878Z,1.90
2023-02-01T02:26:24.918Z,1.53
2023-02-01T02:29:29.553Z,1.80
2023-02-01T02:32:16.312Z,1.80
2023-02-01T02:34:58.056Z,1.73
2023-02-01T02:37:35.749Z,1.50
2023-02-01T02:40:13.011Z,1.40
2023-02-01T02:43:05.195Z,1.57
2023-02-01T02:46:19.243Z,1.90
2023-02-01T02:48:57.341Z,1.57
2023-02-01T02:51:50.556Z,1.60
2023-02-01T02:54:40.127Z,1.77
2023-02-01T02:57:30.532Z,1.83
2023-02-01T03:00:19.140Z,1.50
2023-02-01T03:03:08.292Z,1.73
2023-02-01T03:05:37.727Z,1.60
2023-02-01T03:08:13.209Z,2.10
2023-02-01T03:10:54.341Z,1.90
2023-02-01T03:13:32.383Z,2.00
2023-02-01T03:16:07.097Z,2.30
2023-02-01T03:18:41.041Z,1.70
2023-02-01T03:21:15.867Z,1.77
2023-02-01T03:23:48.393Z,1.80
2023-02-01T03:26:19.304Z,1.70
2023-02-01T03:28:55.776Z,2.20
2023-02-01T03:31:44.936Z,2.07
2023-02-01T03:34:14.030Z,1.50
2023-02-01T03:36:50.621Z,1.80
2023-02-01T03:39:28.014Z,1.50
2023-02-01T03:41:59.932Z,1.70
2023-02-01T03:44:33.450Z,2.13
2023-02-01T03:47:13.512Z,1.93
2023-02-01T03:49:46.044Z,1.60
2023-02-01T03:52:19.672Z,1.87
2023-02-01T03:54:54.475Z,1.37
2023-02-01T03:57:29.139Z,1.83
2023-02-01T04:00:08.264Z,1.63
2023-02-01T04:02:36.688Z,1.50
2023-02-01T04:05:05.360Z,1.80
2023-02-01T04:07:33.781Z,2.03
2023-02-01T04:10:04.636Z,1.70
2023-02-01T04:12:32.929Z,1.50
2023-02-01T04:15:01.159Z,2.07
2023-02-01T04:17:29.473Z,1.57
2023-02-01T04:19:57.654Z,1.60
2023-02-01T04:22:25.953Z,1.97
2023-02-01T04:24:57.116Z,1.70
2023-02-01T04:27:26.780Z,1.63
2023-02-01T04:29:56.950Z,2.10
2023-02-01T04:32:26.362Z,1.50
2023-02-01T04:35:00.890Z,1.80
2023-02-01T04:37:29.986Z,1.77
2023-02-01T04:39:58.464Z,1.70
2023-02-01T04:42:28.382Z,1.67
2023-02-01T04:44:56.872Z,1.80
2023-02-01T04:47:25.450Z,1.70
2023-02-01T04:50:00.902Z,2.40
2023-02-01T04:52:29.480Z,2.10
2023-02-01T04:54:59.397Z,1.50
2023-02-01T04:57:30.231Z,1.70
2023-02-01T04:59:58.618Z,2.07
2023-02-01T05:02:26.996Z,1.80
2023-02-01T05:04:57.937Z,1.87
2023-02-01T05:07:26.403Z,1.67
2023-02-01T05:09:54.991Z,1.80
2023-02-01T05:12:52.041Z,1.67
2023-02-01T05:15:21.906Z,2.00
2023-02-01T05:17:50.198Z,1.63
2023-02-01T05:20:19.517Z,2.80
2023-02-01T05:22:47.999Z,2.07
2023-02-01T05:25:16.503Z,2.10
2023-02-01T05:27:45.296Z,1.80
2023-02-01T05:30:15.702Z,1.73
2023-02-01T05:32:45.883Z,1.93
2023-02-01T05:35:14.090Z,1.50
2023-02-01T05:37:45.106Z,2.13
2023-02-01T05:40:14.295Z,1.83
2023-02-01T05:42:44.994Z,1.80
2023-02-01T05:45:13.617Z,1.90
2023-02-01T05:47:45.891Z,1.83
2023-02-01T05:50:14.363Z,1.63
2023-02-01T05:52:43.138Z,2.77
2023-02-01T05:55:11.822Z,1.90
2023-02-01T05:57:40.214Z,2.10
2023-02-01T06:00:10.001Z,2.00
2023-02-01T06:02:38.788Z,2.30
2023-02-01T06:05:14.597Z,2.23
2023-02-01T06:07:43.359Z,2.20
2023-02-01T06:10:12.885Z,1.93
2023-02-01T06:12:43.876Z,1.80
2023-02-01T06:15:13.263Z,1.73
2023-02-01T06:17:42.510Z,2.30
2023-02-01T06:21:09.720Z,2.43
2023-02-01T06:23:39.498Z,1.90
2023-02-01T06:26:11.863Z,2.30
2023-02-01T06:28:40.498Z,2.13
2023-02-01T06:31:09.526Z,1.70
2023-02-01T06:33:38.547Z,2.23
2023-02-01T06:36:08.775Z,1.80
2023-02-01T06:38:39.836Z,1.87
2023-02-01T06:41:11.358Z,3.53
2023-02-01T06:43:39.628Z,1.60
2023-02-01T06:46:09.679Z,1.90
2023-02-01T06:48:38.454Z,2.33
2023-02-01T06:51:07.246Z,2.50
2023-02-01T06:53:35.976Z,1.90
2023-02-01T06:56:06.388Z,3.07
2023-02-01T06:58:35.567Z,2.33
2023-02-01T07:01:08.240Z,2.40
2023-02-01T07:03:36.908Z,2.20
2023-02-01T07:06:05.757Z,2.33
2023-02-01T07:08:36.798Z,2.43
2023-02-01T07:11:07.188Z,2.80
2023-02-01T07:13:39.336Z,2.53
2023-02-01T07:16:12.767Z,2.13
2023-02-01T07:18:41.344Z,1.73
2023-02-01T07:21:10.183Z,2.47
2023-02-01T07:23:40.962Z,2.43
2023-02-01T07:26:14.246Z,2.40
2023-02-01T07:28:43.496Z,2.37
2023-02-01T07:31:14.608Z,2.47
2023-02-01T07:33:43.125Z,3.10
2023-02-01T07:36:16.337Z,2.63
2023-02-01T07:38:45.007Z,2.77
2023-02-01T07:41:14.845Z,3.63
2023-02-01T07:43:43.167Z,2.90
2023-02-01T07:46:16.417Z,3.10
2023-02-01T07:48:44.880Z,2.40
2023-02-01T07:51:15.616Z,3.33
2023-02-01T07:53:44.636Z,2.50
2023-02-01T07:56:19.133Z,2.37
2023-02-01T07:58:50.399Z,3.27
2023-02-01T08:01:21.668Z,2.33
2023-02-01T08:03:50.469Z,3.77
2023-02-01T08:06:20.613Z,2.70
2023-02-01T08:08:49.047Z,2.60
2023-02-01T08:11:20.415Z,2.80
2023-02-01T08:13:50.522Z,2.30
2023-02-01T08:16:20.544Z,2.30
2023-02-01T08:18:48.981Z,3.00
2023-02-01T08:21:21.171Z,2.10
2023-02-01T08:23:49.384Z,2.83
2023-02-01T08:26:21.264Z,2.70
2023-02-01T08:28:52.406Z,2.53
2023-02-01T08:31:23.989Z,2.40
2023-02-01T08:33:57.258Z,1.97
2023-02-01T08:36:29.056Z,1.80
2023-02-01T08:38:57.551Z,2.37
2023-02-01T08:41:30.312Z,2.33
2023-02-01T08:43:59.476Z,1.80
2023-02-01T08:46:29.445Z,1.93
2023-02-01T08:48:57.976Z,2.20
2023-02-01T08:51:26.275Z,2.10
2023-02-01T08:53:54.648Z,2.10
2023-02-01T08:56:23.373Z,2.53
2023-02-01T08:58:53.072Z,2.30
2023-02-01T09:01:21.437Z,2.63
2023-02-01T09:03:49.753Z,2.20
2023-02-01T09:06:18.672Z,2.00
2023-02-01T09:08:47.283Z,2.30
2023-02-01T09:11:18.788Z,2.47
2023-02-01T09:13:47.353Z,2.03
2023-02-01T09:16:17.489Z,2.17
2023-02-01T09:18:56.070Z,2.50
2023-02-01T09:21:30.366Z,1.90
2023-02-01T09:23:58.667Z,2.00
2023-02-01T09:26:32.164Z,2.40
2023-02-01T09:29:01.372Z,2.07
2023-02-01T09:31:31.378Z,2.13
2023-02-01T09:33:59.796Z,2.37
2023-02-01T09:36:30.188Z,1.87
2023-02-01T09:38:59.578Z,2.20
2023-02-01T09:41:46.373Z,2.50
2023-02-01T09:44:43.801Z,1.80
2023-02-01T09:47:17.804Z,2.10
2023-02-01T09:49:54.946Z,2.93
2023-02-01T09:52:32.003Z,2.13
2023-02-01T09:55:05.150Z,2.10
2023-02-01T09:57:47.622Z,2.57
2023-02-01T10:00:23.024Z,2.40
2023-02-01T10:02:53.553Z,3.40
2023-02-01T10:05:47.428Z,2.30
2023-02-01T10:08:27.894Z,2.33
2023-02-01T10:11:05.568Z,2.33
2023-02-01T10:13:47.547Z,2.63
2023-02-01T10:16:26.597Z,2.90
2023-02-01T10:19:20.442Z,2.27
2023-02-01T10:21:58.757Z,3.53
2023-02-01T10:24:43.688Z,2.73
2023-02-01T10:27:19.431Z,2.60
2023-02-01T10:29:53.944Z,2.63
2023-02-01T10:32:25.768Z,2.53
2023-02-01T10:35:00.526Z,2.90
2023-02-01T10:37:32.523Z,2.40
2023-02-01T10:40:06.750Z,3.60
2023-02-01T10:42:35.215Z,2.50
2023-02-01T10:45:08.030Z,2.80
2023-02-01T10:47:37.245Z,2.93
2023-02-01T10:50:18.889Z,2.63
2023-02-01T10:52:53.259Z,2.93
2023-02-01T10:55:38.359Z,3.10
2023-02-01T10:58:10.140Z,2.47
2023-02-01T11:00:46.581Z,2.87
2023-02-01T11:03:45.380Z,2.80
2023-02-01T11:06:28.167Z,2.83
2023-02-01T11:08:58.832Z,2.70
2023-02-01T11:11:27.702Z,2.50
2023-02-01T11:13:58.852Z,2.77
2023-02-01T11:16:38.632Z,2.50
2023-02-01T11:19:09.766Z,2.60
2023-02-01T11:21:46.338Z,2.33
2023-02-01T11:24:24.657Z,2.33
2023-02-01T11:26:54.298Z,2.87
2023-02-01T11:29:30.848Z,3.30
2023-02-01T11:32:01.300Z,3.23
2023-02-01T11:34:36.946Z,3.20
2023-02-01T11:37:12.419Z,2.97
2023-02-01T11:39:41.542Z,2.83
2023-02-01T11:42:16.360Z,2.90
2023-02-01T11:44:46.605Z,2.63
2023-02-01T11:47:25.541Z,2.67
2023-02-01T11:49:55.698Z,3.50
2023-02-01T11:52:45.995Z,3.03
2023-02-01T11:55:41.173Z,2.67
2023-02-01T11:58:23.198Z,3.47
2023-02-01T12:01:09.836Z,2.93
2023-02-01T12:04:11.107Z,2.60
2023-02-01T12:06:50.763Z,2.27
2023-02-01T12:09:40.548Z,2.77
2023-02-01T12:12:18.675Z,2.50
2023-02-01T12:15:09.499Z,2.97
2023-02-01T12:17:53.814Z,2.07
2023-02-01T12:20:40.454Z,2.00
2023-02-01T12:23:27.472Z,2.00
2023-02-01T12:26:08.713Z,2.60
2023-02-01T12:28:54.962Z,2.50
2023-02-01T12:31:52.238Z,2.30
2023-02-01T12:34:38.377Z,2.53
2023-02-01T12:37:17.539Z,2.57
2023-02-01T12:39:53.918Z,2.20
2023-02-01T12:42:28.687Z,2.87
2023-02-01T12:45:03.004Z,3.00
2023-02-01T12:47:37.999Z,2.17
2023-02-01T12:50:15.215Z,2.23
2023-02-01T12:52:49.348Z,2.43
2023-02-01T12:55:24.098Z,2.80
2023-02-01T12:57:57.986Z,2.23
2023-02-01T13:00:34.665Z,2.47
2023-02-01T13:03:13.899Z,2.13
2023-02-01T13:05:51.493Z,2.00
2023-02-01T13:08:25.911Z,2.70
2023-02-01T13:11:02.705Z,2.20
2023-02-01T13:13:40.890Z,3.10
2023-02-01T13:16:19.463Z,2.30
2023-02-01T13:18:52.392Z,1.97
2023-02-01T13:21:26.316Z,2.17
2023-02-01T13:23:55.567Z,2.03
2023-02-01T13:26:23.776Z,2.30
2023-02-01T13:28:59.489Z,2.00
2023-02-01T13:31:50.590Z,2.00
2023-02-01T13:34:48.422Z,2.30
2023-02-01T13:37:32.373Z,1.90
2023-02-01T13:40:18.948Z,1.80
2023-02-01T13:42:52.184Z,1.80
2023-02-01T13:45:25.711Z,1.40
2023-02-01T13:47:59.033Z,1.67
2023-02-01T13:50:31.393Z,1.50
2023-02-01T13:53:03.413Z,1.50
2023-02-01T13:55:35.175Z,1.53
2023-02-01T13:58:08.071Z,1.53
2023-02-01T14:00:39.373Z,2.03
2023-02-01T14:03:16.911Z,1.60
2023-02-01T14:06:02.604Z,1.50
2023-02-01T14:09:08.136Z,1.63
2023-02-01T14:11:51.717Z,1.60
2023-02-01T14:14:52.464Z,1.70
2023-02-01T14:17:40.861Z,1.60
2023-02-01T14:20:47.233Z,1.63
2023-02-01T14:23:23.578Z,1.60
2023-02-01T14:26:17.136Z,1.70
2023-02-01T14:29:02.964Z,1.70
2023-02-01T14:31:40.225Z,2.13
2023-02-01T14:34:18.360Z,2.17
2023-02-01T14:36:50.685Z,2.20
2023-02-01T14:39:42.186Z,1.93
2023-02-01T14:42:24.719Z,2.20
2023-02-01T14:44:59.063Z,2.20
2023-02-01T14:47:34.751Z,1.90
2023-02-01T14:50:19.226Z,1.73
2023-02-01T14:52:50.133Z,2.20
2023-02-01T14:55:25.999Z,2.00
2023-02-01T14:57:57.743Z,1.67
2023-02-01T15:00:29.723Z,2.00
2023-02-01T15:03:38.523Z,1.60
2023-02-01T15:06:23.396Z,1.33
2023-02-01T15:08:55.795Z,2.10
2023-02-01T15:11:24.523Z,2.80
2023-02-01T15:13:58.338Z,3.10
2023-02-01T15:16:28.251Z,2.80
2023-02-01T15:19:16.224Z,3.13
2023-02-01T15:21:50.039Z,3.00
2023-02-01T15:24:24.809Z,3.00
2023-02-01T15:26:54.344Z,2.17
2023-02-01T15:29:26.702Z,2.60
2023-02-01T15:31:55.846Z,2.30
2023-02-01T15:34:24.424Z,2.27
2023-02-01T15:37:02.923Z,2.70
2023-02-01T15:39:34.084Z,2.47
2023-02-01T15:42:11.595Z,2.90
2023-02-01T15:48:29.866Z,2.87
2023-02-01T15:51:00.113Z,2.70
2023-02-01T15:53:32.435Z,2.67
2023-02-01T15:56:06.915Z,2.47
2023-02-01T15:58:39.243Z,2.60
2023-02-01T16:01:15.825Z,2.50
2023-02-01T16:03:48.426Z,2.50
2023-02-01T16:06:31.746Z,2.90
2023-02-01T16:09:15.949Z,2.77
2023-02-01T16:11:51.167Z,2.50
2023-02-01T16:14:19.899Z,2.47
2023-02-01T16:16:48.617Z,2.57
2023-02-01T16:19:20.898Z,3.00
2023-02-01T16:21:49.640Z,2.20
2023-02-01T16:24:24.320Z,2.47
2023-02-01T16:26:53.080Z,2.10
2023-02-01T16:29:22.803Z,2.40
2023-02-01T16:31:52.089Z,2.30
2023-02-01T16:34:20.898Z,3.07
2023-02-01T16:36:54.046Z,2.53
2023-02-01T16:39:24.281Z,2.50
2023-02-01T16:41:53.277Z,2.07
2023-02-01T16:44:21.881Z,2.57
2023-02-01T16:46:51.303Z,2.53
2023-02-01T16:49:23.479Z,2.47
2023-02-01T16:51:58.649Z,2.27
2023-02-01T16:54:31.304Z,1.93
2023-02-01T16:56:59.639Z,2.17
2023-02-01T16:59:32.056Z,2.30
2023-02-01T17:02:00.342Z,2.57
2023-02-01T17:04:41.722Z,2.33
2023-02-01T17:07:15.058Z,2.23
2023-02-01T17:09:45.951Z,1.97
2023-02-01T17:12:23.956Z,2.03
2023-02-01T17:14:55.330Z,2.00
2023-02-01T17:17:38.075Z,2.00
2023-02-01T17:20:09.614Z,2.20
2023-02-01T17:22:38.260Z,2.03
2023-02-01T17:25:16.037Z,2.00
2023-02-01T17:27:45.566Z,2.27
2023-02-01T17:30:14.814Z,2.20
2023-02-01T17:32:43.793Z,2.53
2023-02-01T17:35:20.332Z,2.17
2023-02-01T17:37:49.624Z,2.40
2023-02-01T17:40:22.313Z,2.63
2023-02-01T17:42:52.339Z,2.80
2023-02-01T17:45:31.343Z,2.87
2023-02-01T17:48:00.164Z,2.67
2023-02-01T17:50:32.004Z,2.33
2023-02-01T17:53:00.481Z,2.40
2023-02-01T17:55:30.845Z,2.80
2023-02-01T17:57:59.144Z,2.40
2023-02-01T18:00:27.630Z,2.40
2023-02-01T18:02:57.196Z,2.43
2023-02-01T18:05:43.191Z,2.73
2023-02-01T18:08:11.756Z,2.97
2023-02-01T18:10:41.480Z,2.30
2023-02-01T18:13:12.164Z,2.20
2023-02-01T18:15:40.913Z,2.80
2023-02-01T18:18:09.242Z,2.97
2023-02-01T18:20:38.312Z,2.50
2023-02-01T18:23:06.673Z,2.50
2023-02-01T18:25:38.318Z,2.70
2023-02-01T18:28:08.182Z,3.20
2023-02-01T18:30:38.208Z,3.00
2023-02-01T18:33:07.032Z,3.30
2023-02-01T18:35:35.649Z,2.90
2023-02-01T18:38:06.314Z,2.70
2023-02-01T18:40:38.115Z,2.97
2023-02-01T18:43:07.989Z,3.03
2023-02-01T18:45:38.451Z,2.50
2023-02-01T18:48:08.880Z,3.47
2023-02-01T18:50:42.188Z,2.90
2023-02-01T18:53:14.615Z,3.23
2023-02-01T18:55:43.249Z,3.30
2023-02-01T18:58:16.114Z,3.40
2023-02-01T19:00:45.685Z,3.80
2023-02-01T19:03:14.263Z,3.67
2023-02-01T19:05:42.545Z,3.50
2023-02-01T19:08:14.613Z,4.30
2023-02-01T19:10:44.073Z,3.80
2023-02-01T19:13:14.558Z,3.80
2023-02-01T19:15:45.950Z,3.43
2023-02-01T19:18:16.220Z,4.10
2023-02-01T19:20:46.153Z,3.87
2023-02-01T19:23:15.093Z,3.57
2023-02-01T19:25:45.798Z,4.03
2023-02-01T19:28:16.421Z,3.77
2023-02-01T19:30:45.230Z,3.57
2023-02-01T19:33:13.726Z,3.80
2023-02-01T19:35:42.011Z,4.13
2023-02-01T19:38:11.489Z,3.53
2023-02-01T19:40:39.846Z,3.47
2023-02-01T19:43:09.146Z,3.63
2023-02-01T19:45:39.035Z,4.27
2023-02-01T19:48:10.223Z,3.67
2023-02-01T19:50:40.242Z,3.43
2023-02-01T19:53:09.126Z,3.87
2023-02-01T19:55:37.690Z,3.50
2023-02-01T19:58:06.429Z,3.23
2023-02-01T20:00:35.047Z,3.43
2023-02-01T20:03:04.998Z,4.20
2023-02-01T20:05:34.238Z,2.73
2023-02-01T20:08:02.563Z,3.07
2023-02-01T20:10:30.823Z,3.00
2023-02-01T20:13:02.361Z,2.87
2023-02-01T20:15:30.671Z,2.73
2023-02-01T20:17:59.381Z,2.43
2023-02-01T20:20:32.188Z,2.87
2023-02-01T20:23:02.492Z,2.37
2023-02-01T20:25:31.805Z,2.47
2023-02-01T20:28:01.823Z,2.17
2023-02-01T20:30:30.179Z,2.30
2023-02-01T20:32:58.411Z,2.20
2023-02-01T20:35:26.954Z,2.00
2023-02-01T20:37:57.247Z,1.90
2023-02-01T20:40:27.562Z,2.10
2023-02-01T20:42:58.068Z,2.87
2023-02-01T20:45:27.308Z,1.90
2023-02-01T20:47:55.711Z,2.27
2023-02-01T20:50:25.322Z,1.93
2023-02-01T20:52:53.540Z,2.10
2023-02-01T20:55:25.530Z,1.93
2023-02-01T20:57:55.297Z,2.30
2023-02-01T21:00:23.819Z,2.87
2023-02-01T21:02:52.450Z,2.37
2023-02-01T21:05:20.802Z,2.50
2023-02-01T21:07:49.124Z,2.57
2023-02-01T21:10:17.363Z,2.60
2023-02-01T21:12:47.384Z,2.90
2023-02-01T21:15:16.910Z,2.43
2023-02-01T21:17:45.172Z,3.17
2023-02-01T21:20:14.803Z,2.83
2023-02-01T21:22:43.001Z,2.57
2023-02-01T21:25:11.677Z,2.70
2023-02-01T21:27:39.992Z,2.37
2023-02-01T21:30:12.592Z,2.77
2023-02-01T21:32:42.209Z,2.70
2023-02-01T21:35:11.052Z,2.30
2023-02-01T21:37:40.167Z,2.13
2023-02-01T21:40:09.213Z,2.13
2023-02-01T21:42:39.320Z,2.17
2023-02-01T21:45:10.582Z,2.03
2023-02-01T21:47:41.165Z,1.90
2023-02-01T21:50:16.221Z,2.13
2023-02-01T21:52:44.945Z,2.40
2023-02-01T21:55:25.072Z,1.97
2023-02-01T21:57:53.634Z,1.93
2023-02-01T22:00:45.869Z,1.93
2023-02-01T22:03:15.842Z,1.97
2023-02-01T22:05:44.063Z,2.23
2023-02-01T22:08:12.290Z,1.83
2023-02-01T22:10:42.223Z,1.90
2023-02-01T22:13:10.518Z,1.77
2023-02-01T22:15:38.917Z,1.70
2023-02-01T22:18:08.521Z,1.60
2023-02-01T22:20:39.020Z,2.03
2023-02-01T22:23:07.652Z,1.37
2023-02-01T22:25:35.855Z,1.80
2023-02-01T22:28:30.986Z,2.00
2023-02-01T22:30:52.691Z,1.67
2023-02-01T22:33:21.219Z,1.73
2023-02-01T22:35:51.022Z,2.00
2023-02-01T22:38:21.862Z,1.83
2023-02-01T22:40:55.867Z,1.43
2023-02-01T22:43:24.671Z,2.10
2023-02-01T22:45:53.402Z,2.17
2023-02-01T22:48:22.954Z,1.97
2023-02-01T22:50:52.758Z,2.17
2023-02-01T22:53:20.925Z,2.00
2023-02-01T22:55:49.159Z,2.63
2023-02-01T22:58:17.421Z,2.20
2023-02-01T23:00:47.124Z,2.00
2023-02-01T23:03:17.963Z,2.23
2023-02-01T23:05:46.234Z,2.10
2023-02-01T23:08:15.862Z,2.00
2023-02-01T23:10:44.166Z,2.13
2023-02-01T23:13:12.426Z,1.67
2023-02-01T23:15:40.978Z,1.80
2023-02-01T23:18:09.304Z,2.13
2023-02-01T23:20:38.130Z,1.50
2023-02-01T23:23:06.341Z,1.83
2023-02-01T23:25:35.999Z,3.17
2023-02-01T23:28:04.294Z,1.80
2023-02-01T23:30:33.032Z,1.60
2023-02-01T23:33:01.381Z,1.87
2023-02-01T23:35:29.637Z,1.70
2023-02-01T23:37:57.958Z,1.73
2023-02-01T23:40:26.170Z,1.50
2023-02-01T23:43:09.738Z,1.50
2023-02-01T23:45:37.940Z,1.60
2023-02-01T23:48:07.975Z,1.83
2023-02-01T23:50:36.152Z,1.33
2023-02-01T23:53:04.331Z,1.50
2023-02-01T23:55:32.572Z,1.83
2023-02-01T23:58:02.248Z,1.47
